createdAt,value
2023-02-27T06:39:18.304Z,2.20
2023-02-27T06:41:45.445Z,1.73
2023-02-27T06:44:12.216Z,2.03
2023-02-27T06:46:39.394Z,1.88
2023-02-27T06:49:06.256Z,2.05
2023-02-27T06:51:33.330Z,1.90
2023-02-27T06:54:00.095Z,1.63
2023-02-27T06:56:27.436Z,1.63
2023-02-27T06:58:54.920Z,2.17
2023-02-27T07:01:23.579Z,1.30
2023-02-27T07:03:50.411Z,1.67
2023-02-27T07:06:17.719Z,1.50
2023-02-27T07:09:01.043Z,1.73
2023-02-27T07:11:31.534Z,1.33
2023-02-27T07:13:58.277Z,1.58
2023-02-27T07:16:25.526Z,2.08
2023-02-27T07:18:52.437Z,2.05
2023-02-27T07:21:19.480Z,1.60
2023-02-27T07:23:46.260Z,1.52
2023-02-27T07:26:13.362Z,1.70
2023-02-27T07:28:40.175Z,1.90
2023-02-27T07:31:07.264Z,1.92
2023-02-27T07:33:34.149Z,1.70
2023-02-27T07:36:01.333Z,1.70
2023-02-27T07:38:28.963Z,2.00
2023-02-27T07:40:56.128Z,1.67
2023-02-27T07:43:22.887Z,2.25
2023-02-27T07:45:51.154Z,1.67
2023-02-27T07:48:19.449Z,1.73
2023-02-27T07:50:46.502Z,2.00
2023-02-27T07:53:13.510Z,2.50
2023-02-27T07:55:40.666Z,2.53
2023-02-27T07:58:07.466Z,2.17
2023-02-27T08:00:34.533Z,1.48
2023-02-27T08:03:01.344Z,2.20
2023-02-27T08:05:28.461Z,2.38
2023-02-27T08:07:55.350Z,1.75
2023-02-27T08:10:22.624Z,1.90
2023-02-27T08:12:49.423Z,2.08
2023-02-27T08:15:17.604Z,2.35
2023-02-27T08:17:45.662Z,1.88
2023-02-27T08:20:14.158Z,1.58
2023-02-27T08:22:41.844Z,2.08
2023-02-27T08:25:11.223Z,1.70
2023-02-27T08:27:38.884Z,1.70
2023-02-27T08:30:07.747Z,2.03
2023-02-27T08:32:35.242Z,2.20
2023-02-27T08:35:02.444Z,2.20
2023-02-27T08:37:29.498Z,2.13
2023-02-27T08:39:56.521Z,1.80
2023-02-27T08:42:24.212Z,1.80
2023-02-27T08:44:52.476Z,2.03
2023-02-27T08:47:19.252Z,2.10
2023-02-27T08:49:46.374Z,2.40
2023-02-27T08:52:13.183Z,1.85
2023-02-27T08:54:40.221Z,2.00
2023-02-27T08:57:09.616Z,2.20
2023-02-27T08:59:36.669Z,1.92
2023-02-27T09:02:03.668Z,2.00
2023-02-27T09:04:30.835Z,2.47
2023-02-27T09:06:58.069Z,3.15
2023-02-27T09:09:25.168Z,2.47
2023-02-27T09:11:51.959Z,2.88
2023-02-27T09:14:20.042Z,2.45
2023-02-27T09:16:46.890Z,2.25
2023-02-27T09:19:15.513Z,2.42
2023-02-27T09:21:42.883Z,1.65
2023-02-27T09:24:19.749Z,1.75
2023-02-27T09:26:48.738Z,1.95
2023-02-27T09:29:16.325Z,2.08
2023-02-27T09:31:43.215Z,2.15
2023-02-27T09:34:10.340Z,2.10
2023-02-27T09:36:37.125Z,1.80
2023-02-27T09:39:04.368Z,1.92
2023-02-27T09:41:56.863Z,1.85
2023-02-27T09:44:46.088Z,2.10
2023-02-27T09:47:30.539Z,2.03
2023-02-27T09:50:01.734Z,1.90
2023-02-27T09:52:31.096Z,1.50
2023-02-27T09:54:58.344Z,1.67
2023-02-27T09:57:44.465Z,2.40
2023-02-27T10:00:39.928Z,1.80
2023-02-27T10:03:23.884Z,2.00
2023-02-27T10:06:21.264Z,1.80
2023-02-27T10:08:57.065Z,2.15
2023-02-27T10:11:34.930Z,1.65
2023-02-27T10:14:10.448Z,2.17
2023-02-27T10:16:39.187Z,1.92
2023-02-27T10:19:14.030Z,2.20
2023-02-27T10:21:44.737Z,1.88
2023-02-27T10:24:17.242Z,1.70
2023-02-27T10:26:45.913Z,2.08
2023-02-27T10:29:24.760Z,2.17
2023-02-27T10:32:01.229Z,2.35
2023-02-27T10:34:29.893Z,2.25
2023-02-27T10:37:00.669Z,2.97
2023-02-27T10:39:29.589Z,2.85
2023-02-27T10:42:03.316Z,2.63
2023-02-27T10:44:30.073Z,2.25
2023-02-27T10:46:57.138Z,2.30
2023-02-27T10:49:24.353Z,2.45
2023-02-27T10:52:13.535Z,2.00
2023-02-27T10:54:41.870Z,2.20
2023-02-27T10:57:35.234Z,3.22
2023-02-27T11:00:06.544Z,2.35
2023-02-27T11:02:42.962Z,2.50
2023-02-27T11:05:48.090Z,2.20
2023-02-27T11:08:27.341Z,2.42
2023-02-27T11:11:00.355Z,2.80
2023-02-27T11:13:33.904Z,2.08
2023-02-27T11:16:44.967Z,2.45
2023-02-27T11:19:44.274Z,2.40
2023-02-27T11:22:20.265Z,2.40
2023-02-27T11:24:48.232Z,2.13
2023-02-27T11:27:22.693Z,2.53
2023-02-27T11:30:02.419Z,2.67
2023-02-27T11:32:45.454Z,3.03
2023-02-27T11:35:31.527Z,2.40
2023-02-27T11:38:07.764Z,3.00
2023-02-27T11:40:40.818Z,2.50
2023-02-27T11:43:20.488Z,3.00
2023-02-27T11:46:13.296Z,2.65
2023-02-27T11:48:48.266Z,2.45
2023-02-27T11:51:32.834Z,2.45
2023-02-27T11:54:20.799Z,2.58
2023-02-27T11:57:03.318Z,2.53
2023-02-27T11:59:39.239Z,2.60
2023-02-27T12:02:23.587Z,3.38
2023-02-27T12:07:36.167Z,2.40
2023-02-27T12:10:10.630Z,3.15
2023-02-27T12:12:48.061Z,2.45
2023-02-27T12:15:23.790Z,2.50
2023-02-27T12:18:05.233Z,2.30
2023-02-27T12:20:35.238Z,3.50
2023-02-27T12:23:10.137Z,2.60
2023-02-27T12:26:03.705Z,3.20
2023-02-27T12:28:41.003Z,3.00
2023-02-27T12:31:43.575Z,2.83
2023-02-27T12:34:31.555Z,2.30
2023-02-27T12:37:03.378Z,2.42
2023-02-27T12:39:32.165Z,2.70
2023-02-27T12:42:21.368Z,3.28
2023-02-27T12:45:10.083Z,3.47
2023-02-27T12:48:13.535Z,3.17
2023-02-27T12:51:06.925Z,3.47
2023-02-27T12:53:58.387Z,3.00
2023-02-27T12:56:52.740Z,3.08
2023-02-27T12:59:53.776Z,2.92
2023-02-27T13:02:51.750Z,3.25
2023-02-27T13:05:18.727Z,3.13
2023-02-27T13:07:53.483Z,2.92
2023-02-27T13:10:31.644Z,3.05
2023-02-27T13:13:12.562Z,3.95
2023-02-27T13:15:55.334Z,2.72
2023-02-27T13:18:36.056Z,2.97
2023-02-27T13:21:32.209Z,3.95
2023-02-27T13:24:18.000Z,3.13
2023-02-27T13:26:57.325Z,3.13
2023-02-27T13:29:36.988Z,2.78
2023-02-27T13:32:36.501Z,3.08
2023-02-27T13:35:54.708Z,3.03
2023-02-27T13:38:45.526Z,3.63
2023-02-27T13:41:39.475Z,2.72
2023-02-27T13:44:21.374Z,3.20
2023-02-27T13:46:48.464Z,3.00
2023-02-27T13:49:28.288Z,3.13
2023-02-27T13:51:59.516Z,2.83
2023-02-27T13:54:33.417Z,2.83
2023-02-27T13:57:03.483Z,4.53
2023-02-27T13:59:39.690Z,3.28
2023-02-27T14:02:12.893Z,3.20
2023-02-27T14:04:45.549Z,3.22
2023-02-27T14:07:18.670Z,3.22
2023-02-27T14:09:47.624Z,3.10
2023-02-27T14:12:44.552Z,3.90
2023-02-27T14:15:17.920Z,3.20
2023-02-27T14:17:49.621Z,3.07
2023-02-27T14:20:19.327Z,3.67
2023-02-27T14:23:17.402Z,3.17
2023-02-27T14:25:53.279Z,3.45
2023-02-27T14:28:30.429Z,3.58
2023-02-27T14:31:07.425Z,3.03
2023-02-27T14:33:45.412Z,3.13
2023-02-27T14:36:30.481Z,3.65
2023-02-27T14:38:59.928Z,3.25
2023-02-27T14:41:49.650Z,3.00
2023-02-27T14:44:24.690Z,3.05
2023-02-27T14:46:54.700Z,3.40
2023-02-27T14:49:32.493Z,3.63
2023-02-27T14:52:12.651Z,3.38
2023-02-27T14:54:39.760Z,3.20
2023-02-27T14:57:07.347Z,3.15
2023-02-27T14:59:49.422Z,3.20
2023-02-27T15:02:22.315Z,3.67
2023-02-27T15:05:02.296Z,3.03
2023-02-27T15:07:34.464Z,3.55
2023-02-27T15:10:05.080Z,3.70
2023-02-27T15:12:37.214Z,3.60
2023-02-27T15:15:06.098Z,3.22
2023-02-27T15:17:41.532Z,3.30
2023-02-27T15:20:27.581Z,3.50
2023-02-27T15:22:54.549Z,3.45
2023-02-27T15:25:37.403Z,3.13
2023-02-27T15:28:07.623Z,2.88
2023-02-27T15:30:34.792Z,2.80
2023-02-27T15:33:02.945Z,2.83
2023-02-27T15:35:37.141Z,3.33
2023-02-27T15:38:04.340Z,2.97
2023-02-27T15:40:33.464Z,3.60
2023-02-27T15:43:01.585Z,3.42
2023-02-27T15:45:34.128Z,4.78
2023-02-27T15:48:01.440Z,3.00
2023-02-27T15:50:38.945Z,3.58
2023-02-27T15:53:13.254Z,3.33
2023-02-27T15:55:53.321Z,2.95
2023-02-27T15:58:25.175Z,2.90
2023-02-27T16:01:04.708Z,3.22
2023-02-27T16:03:38.580Z,3.50
2023-02-27T16:06:21.721Z,3.75
2023-02-27T16:08:56.388Z,3.53
2023-02-27T16:11:26.172Z,3.50
2023-02-27T16:13:54.274Z,3.92
2023-02-27T16:16:21.387Z,3.47
2023-02-27T16:18:59.409Z,4.22
2023-02-27T16:21:31.117Z,3.67
2023-02-27T16:24:21.398Z,4.68
2023-02-27T16:26:53.129Z,5.35
2023-02-27T16:29:23.059Z,5.35
2023-02-27T16:31:55.981Z,4.88
2023-02-27T16:34:46.659Z,5.35
2023-02-27T16:37:27.100Z,5.28
2023-02-27T16:39:54.500Z,4.13
2023-02-27T16:42:22.049Z,4.63
2023-02-27T16:44:49.065Z,5.60
2023-02-27T16:47:16.218Z,5.70
2023-02-27T16:49:44.445Z,4.55
2023-02-27T16:52:11.985Z,5.10
2023-02-27T16:54:38.964Z,5.07
2023-02-27T16:57:06.379Z,4.22
2023-02-27T16:59:42.035Z,4.38
2023-02-27T17:02:14.889Z,4.55
2023-02-27T17:04:47.868Z,5.03
2023-02-27T17:07:17.274Z,5.65
2023-02-27T17:09:47.725Z,4.78
2023-02-27T17:12:14.872Z,5.53
2023-02-27T17:14:41.673Z,5.30
2023-02-27T17:17:11.537Z,5.65
2023-02-27T17:19:39.018Z,5.90
2023-02-27T17:22:06.449Z,5.05
2023-02-27T17:24:34.295Z,5.68
2023-02-27T17:27:01.388Z,7.60
2023-02-27T17:29:28.828Z,7.15
2023-02-27T17:31:57.157Z,6.28
2023-02-27T17:34:24.559Z,6.65
2023-02-27T17:36:53.319Z,6.70
2023-02-27T17:39:20.249Z,7.43
2023-02-27T17:41:47.691Z,7.97
2023-02-27T17:44:14.906Z,7.97
2023-02-27T17:46:42.011Z,8.15
2023-02-27T17:49:09.598Z,7.32
2023-02-27T17:51:36.718Z,8.60
2023-02-27T17:54:05.029Z,9.20
2023-02-27T17:56:33.668Z,8.25
2023-02-27T17:59:01.659Z,9.18
2023-02-27T18:01:29.195Z,9.50
2023-02-27T18:03:56.716Z,8.95
2023-02-27T18:06:24.417Z,8.82
2023-02-27T18:08:51.626Z,7.72
2023-02-27T18:11:21.106Z,9.88
2023-02-27T18:13:48.453Z,12.00
2023-02-27T18:16:15.977Z,7.68
2023-02-27T18:18:43.649Z,7.45
2023-02-27T18:21:14.492Z,6.30
2023-02-27T18:23:41.795Z,6.13
2023-02-27T18:26:27.192Z,5.70
2023-02-27T18:29:06.707Z,5.25
2023-02-27T18:31:41.195Z,5.68
2023-02-27T18:34:08.759Z,5.50
2023-02-27T18:36:36.696Z,5.50
2023-02-27T18:39:05.127Z,6.03
2023-02-27T18:41:32.488Z,5.63
2023-02-27T18:43:59.348Z,4.93
2023-02-27T18:46:27.545Z,5.47
2023-02-27T18:48:54.657Z,4.60
2023-02-27T18:51:22.092Z,4.32
2023-02-27T18:53:50.167Z,4.43
2023-02-27T18:56:23.721Z,4.50
2023-02-27T18:58:51.500Z,4.25
2023-02-27T19:01:27.489Z,3.55
2023-02-27T19:04:00.335Z,4.07
2023-02-27T19:06:28.242Z,4.75
2023-02-27T19:08:55.214Z,4.35
2023-02-27T19:11:29.617Z,4.45
2023-02-27T19:13:57.689Z,3.97
2023-02-27T19:16:25.074Z,4.05
2023-02-27T19:18:51.962Z,3.78
2023-02-27T19:21:19.008Z,3.45
2023-02-27T19:23:45.925Z,3.65
2023-02-27T19:26:13.106Z,3.55
2023-02-27T19:28:40.574Z,3.55
2023-02-27T19:31:10.389Z,3.97
2023-02-27T19:33:37.555Z,4.05
2023-02-27T19:36:10.891Z,4.22
2023-02-27T19:38:37.971Z,4.63
2023-02-27T19:41:07.910Z,3.78
2023-02-27T19:43:36.308Z,4.45
2023-02-27T19:46:16.508Z,4.25
2023-02-27T19:48:43.777Z,4.65
2023-02-27T19:51:13.468Z,4.03
2023-02-27T19:53:42.242Z,3.88
2023-02-27T19:56:12.851Z,4.05
2023-02-27T19:58:40.799Z,3.90
2023-02-27T20:01:09.845Z,4.28
2023-02-27T20:03:37.675Z,4.40
2023-02-27T20:06:06.336Z,4.38
2023-02-27T20:08:34.317Z,6.00
2023-02-27T20:11:04.942Z,5.15
2023-02-27T20:13:31.855Z,5.40
2023-02-27T20:16:04.166Z,4.50
2023-02-27T20:18:31.962Z,3.78
2023-02-27T20:21:08.193Z,4.93
2023-02-27T20:23:38.886Z,4.57
2023-02-27T20:26:31.696Z,4.43
2023-02-27T20:29:02.084Z,3.83
2023-02-27T20:31:31.306Z,4.53
2023-02-27T20:34:01.115Z,3.42
2023-02-27T20:36:29.024Z,4.03
2023-02-27T20:38:55.961Z,5.43
2023-02-27T20:41:23.808Z,4.70
2023-02-27T20:43:51.692Z,5.38
2023-02-27T20:46:25.098Z,4.22
2023-02-27T20:48:52.102Z,4.63
2023-02-27T20:51:22.177Z,4.35
2023-02-27T20:53:52.409Z,4.22
2023-02-27T20:56:34.535Z,4.97
2023-02-27T20:59:05.934Z,4.57
2023-02-27T21:01:33.602Z,4.43
2023-02-27T21:04:00.637Z,3.97
2023-02-27T21:06:27.974Z,4.15
2023-02-27T21:08:56.780Z,5.28
2023-02-27T21:11:30.006Z,5.10
2023-02-27T21:13:59.272Z,4.63
2023-02-27T21:16:26.433Z,5.25
2023-02-27T21:18:56.490Z,5.18
2023-02-27T21:25:24.460Z,5.05
2023-02-27T21:27:51.692Z,5.65
2023-02-27T21:30:18.929Z,4.65
2023-02-27T21:32:46.005Z,4.63
2023-02-27T21:35:12.891Z,5.07
2023-02-27T21:37:46.672Z,4.80
2023-02-27T21:40:14.321Z,5.18
2023-02-27T21:42:43.424Z,5.45
2023-02-27T21:45:10.621Z,4.93
2023-02-27T21:47:37.717Z,5.38
2023-02-27T21:50:13.722Z,5.03
2023-02-27T21:52:42.288Z,6.35
2023-02-27T21:55:10.969Z,5.68
2023-02-27T21:57:39.602Z,5.68
2023-02-27T22:00:11.120Z,5.72
2023-02-27T22:02:39.392Z,5.88
2023-02-27T22:05:07.097Z,5.13
2023-02-27T22:07:34.172Z,5.55
2023-02-27T22:10:01.071Z,5.38
2023-02-27T22:12:28.237Z,5.63
2023-02-27T22:14:55.029Z,5.53
2023-02-27T22:17:22.126Z,5.28
2023-02-27T22:19:49.008Z,6.05
2023-02-27T22:22:16.154Z,5.07
2023-02-27T22:24:52.209Z,5.50
2023-02-27T22:27:22.161Z,5.25
2023-02-27T22:29:48.975Z,5.75
2023-02-27T22:32:18.105Z,5.15
2023-02-27T22:34:46.102Z,5.03
2023-02-27T22:37:16.252Z,5.22
2023-02-27T22:39:43.043Z,5.75
2023-02-27T22:42:10.130Z,5.38
2023-02-27T22:44:36.940Z,7.53
2023-02-27T22:47:04.035Z,6.90
2023-02-27T22:49:30.793Z,7.93
2023-02-27T22:51:57.891Z,9.23
2023-02-27T22:54:24.685Z,7.43
2023-02-27T22:56:52.803Z,7.25
2023-02-27T22:59:20.980Z,9.27
2023-02-27T23:01:48.956Z,7.47
2023-02-27T23:04:17.186Z,6.65
2023-02-27T23:06:44.760Z,7.05
2023-02-27T23:09:14.516Z,7.18
2023-02-27T23:11:42.095Z,8.40
2023-02-27T23:14:10.065Z,5.72
2023-02-27T23:16:37.327Z,7.10
2023-02-27T23:19:04.933Z,7.15
2023-02-27T23:21:36.299Z,6.25
2023-02-27T23:24:05.097Z,7.63
2023-02-27T23:26:32.232Z,8.13
2023-02-27T23:28:58.985Z,7.72
2023-02-27T23:31:26.246Z,8.23
2023-02-27T23:33:53.207Z,7.28
2023-02-27T23:36:20.768Z,7.28
2023-02-27T23:38:47.658Z,7.25
2023-02-27T23:41:17.421Z,7.88
2023-02-27T23:43:45.170Z,8.25
2023-02-27T23:46:14.826Z,7.57
2023-02-27T23:48:42.406Z,7.25
2023-02-27T23:51:11.090Z,6.90
2023-02-27T23:53:40.406Z,7.60
2023-02-27T23:56:13.359Z,6.97
2023-02-27T23:58:40.190Z,7.82
